Terminal Aerodrome Forecast
Issued by NWS

Current Version | Previous Version | Text Only | Print | Product List | Glossary On
Versions: 1 2 3 4 5 6 7 8 9 10 11 12 13 14 15
000
FTUS46 KSEW 272200 AAB
TAFPAE
TAF AMD
KPAE 272201Z 2722/2818 30008KT P6SM -SHRA BKN015 OVC030
      TEMPO 2722/2802 2SM RA BR OVC010
     FM281000 VRB05KT P6SM OVC010=

USA.gov is the U.S. government's official web portal to all federal, state and local government web resources and services.